createdAt,value
2016-12-02T00:00:22.272Z,0
2016-12-02T00:01:22.277Z,0
2016-12-02T00:02:22.264Z,0
2016-12-02T00:03:22.285Z,0
2016-12-02T00:04:22.257Z,0
2016-12-02T00:05:22.253Z,0
2016-12-02T00:06:21.926Z,0
2016-12-02T00:07:22.242Z,0
2016-12-02T00:08:22.245Z,0
2016-12-02T00:09:21.910Z,0
2016-12-02T00:10:22.058Z,0
2016-12-02T00:11:22.230Z,0
2016-12-02T00:12:22.222Z,0
2016-12-02T00:13:22.218Z,0
2016-12-02T00:14:21.890Z,0
2016-12-02T00:15:22.207Z,0
2016-12-02T00:16:22.203Z,0
2016-12-02T00:17:21.547Z,0
2016-12-02T00:18:22.195Z,0
2016-12-02T00:19:22.191Z,0
2016-12-02T00:20:21.859Z,0
2016-12-02T00:21:22.193Z,0
2016-12-02T00:22:22.175Z,0
2016-12-02T00:23:21.848Z,0
2016-12-02T00:24:22.172Z,0
2016-12-02T00:25:22.168Z,0
2016-12-02T00:26:21.832Z,0
2016-12-02T00:27:22.152Z,0
2016-12-02T00:28:22.148Z,0
2016-12-02T00:29:22.145Z,0
2016-12-02T00:30:22.136Z,0
2016-12-02T00:31:22.160Z,0
2016-12-02T00:32:22.134Z,0
2016-12-02T00:33:22.137Z,0
2016-12-02T00:34:21.793Z,0
2016-12-02T00:35:22.117Z,0
2016-12-02T00:36:22.113Z,0
2016-12-02T00:37:22.109Z,0
2016-12-02T00:38:21.785Z,0
2016-12-02T00:39:21.782Z,0
2016-12-02T00:40:21.776Z,0
2016-12-02T00:41:21.766Z,0
2016-12-02T00:42:22.086Z,0
2016-12-02T00:43:22.130Z,0
2016-12-02T00:44:21.754Z,0
2016-12-02T00:45:22.086Z,0
2016-12-02T00:46:22.074Z,0
2016-12-02T00:47:22.062Z,0
2016-12-02T00:48:22.059Z,0
2016-12-02T00:49:21.730Z,0
2016-12-02T00:50:22.050Z,0
2016-12-02T00:51:22.050Z,0
2016-12-02T00:52:21.718Z,0
2016-12-02T00:53:22.046Z,0
2016-12-02T00:54:22.035Z,0
2016-12-02T00:55:22.026Z,0
2016-12-02T00:56:22.027Z,0
2016-12-02T00:57:22.019Z,0
2016-12-02T00:58:21.363Z,0
2016-12-02T00:59:21.687Z,0
2016-12-02T01:00:22.007Z,0
2016-12-02T01:01:21.675Z,0
2016-12-02T01:02:21.671Z,0
2016-12-02T01:03:21.991Z,0
2016-12-02T01:04:21.987Z,0
2016-12-02T01:05:21.668Z,0
2016-12-02T01:06:21.331Z,0
2016-12-02T01:07:21.643Z,0
2016-12-02T01:08:21.643Z,0
2016-12-02T01:09:21.963Z,0
2016-12-02T01:10:21.979Z,0
2016-12-02T01:11:21.955Z,0
2016-12-02T01:12:21.627Z,0
2016-12-02T01:13:21.953Z,0
2016-12-02T01:14:21.939Z,0
2016-12-02T01:15:21.935Z,0
2016-12-02T01:16:21.931Z,0
2016-12-02T01:17:21.599Z,0
2016-12-02T01:18:21.923Z,0
2016-12-02T01:19:21.928Z,0
2016-12-02T01:20:21.255Z,0
2016-12-02T01:21:21.907Z,0
2016-12-02T01:22:21.584Z,0
2016-12-02T01:23:20.923Z,0
2016-12-02T01:24:21.896Z,0
2016-12-02T01:25:21.560Z,0
2016-12-02T01:26:21.572Z,0
2016-12-02T01:27:20.904Z,0
2016-12-02T01:28:21.876Z,0
2016-12-02T01:29:21.548Z,0
2016-12-02T01:30:21.870Z,0
2016-12-02T01:31:21.868Z,0
2016-12-02T01:32:21.528Z,0
2016-12-02T01:33:21.203Z,0
2016-12-02T01:34:21.848Z,0
2016-12-02T01:35:21.844Z,0
2016-12-02T01:36:21.512Z,0
2016-12-02T01:37:21.832Z,0
2016-12-02T01:38:21.508Z,0
2016-12-02T01:39:21.824Z,0
2016-12-02T01:40:21.824Z,0
2016-12-02T01:41:21.820Z,0
2016-12-02T01:42:21.813Z,0
2016-12-02T01:43:21.804Z,0
2016-12-02T01:44:21.804Z,0
2016-12-02T01:45:21.476Z,0
2016-12-02T01:46:21.797Z,0
2016-12-02T01:47:21.789Z,0
2016-12-02T01:48:21.457Z,0
2016-12-02T01:49:21.453Z,0
2016-12-02T01:50:21.773Z,0
2016-12-02T01:51:21.769Z,0
2016-12-02T01:52:21.796Z,0
2016-12-02T01:53:21.133Z,0
2016-12-02T01:54:21.429Z,0
2016-12-02T01:55:21.749Z,0
2016-12-02T01:56:21.116Z,0
2016-12-02T01:57:21.741Z,0
2016-12-02T01:58:21.409Z,0
2016-12-02T01:59:21.405Z,0
2016-12-02T02:00:21.733Z,0
2016-12-02T02:01:21.725Z,0
2016-12-02T02:02:21.393Z,0
2016-12-02T02:03:21.389Z,0
2016-12-02T02:04:21.389Z,0
2016-12-02T02:05:21.905Z,0
2016-12-02T02:06:21.369Z,0
2016-12-02T02:07:21.725Z,0
2016-12-02T02:08:21.690Z,0
2016-12-02T02:09:21.691Z,0
2016-12-02T02:10:21.354Z,0
2016-12-02T02:11:21.353Z,0
2016-12-02T02:12:21.349Z,0
2016-12-02T02:13:21.342Z,0
2016-12-02T02:14:21.665Z,0
2016-12-02T02:15:21.662Z,0
2016-12-02T02:16:21.650Z,0
2016-12-02T02:17:21.333Z,0
2016-12-02T02:18:21.645Z,0
2016-12-02T02:19:21.314Z,0
2016-12-02T02:20:21.305Z,0
2016-12-02T02:21:21.658Z,0
2016-12-02T02:22:21.302Z,0
2016-12-02T02:23:21.622Z,0
2016-12-02T02:24:21.618Z,0
2016-12-02T02:25:21.611Z,0
2016-12-02T02:26:21.283Z,0
2016-12-02T02:27:21.606Z,0
2016-12-02T02:28:21.598Z,0
2016-12-02T02:29:21.590Z,0
2016-12-02T02:30:21.588Z,0
2016-12-02T02:31:21.254Z,0
2016-12-02T02:32:21.254Z,0
2016-12-02T02:33:21.574Z,0
2016-12-02T02:34:21.570Z,0
2016-12-02T02:35:21.242Z,0
2016-12-02T02:36:21.561Z,0
2016-12-02T02:37:20.898Z,0
2016-12-02T02:38:21.226Z,0
2016-12-02T02:39:21.546Z,0
2016-12-02T02:40:21.542Z,0
2016-12-02T02:41:21.207Z,0
2016-12-02T02:42:21.526Z,0
2016-12-02T02:43:21.518Z,0
2016-12-02T02:44:21.522Z,0
2016-12-02T02:45:21.190Z,0
2016-12-02T02:46:21.514Z,0
2016-12-02T02:47:21.174Z,0
2016-12-02T02:48:21.178Z,0
2016-12-02T02:49:21.174Z,0
2016-12-02T02:50:21.494Z,0
2016-12-02T02:51:21.486Z,0
2016-12-02T02:52:21.154Z,0
2016-12-02T02:53:20.502Z,0
2016-12-02T02:54:21.142Z,0
2016-12-02T02:55:21.466Z,0
2016-12-02T02:56:21.462Z,0
2016-12-02T02:57:21.130Z,0
2016-12-02T02:58:21.450Z,0
2016-12-02T02:59:21.450Z,0
2016-12-02T03:00:21.442Z,0
2016-12-02T03:01:21.434Z,0
2016-12-02T03:02:21.433Z,0
2016-12-02T03:03:21.426Z,0
2016-12-02T03:04:21.425Z,0
2016-12-02T03:05:21.422Z,0
2016-12-02T03:06:21.410Z,0
2016-12-02T03:07:20.757Z,0
2016-12-02T03:08:21.401Z,0
2016-12-02T03:09:21.398Z,0
2016-12-02T03:10:21.070Z,0
2016-12-02T03:11:21.066Z,0
2016-12-02T03:12:20.733Z,0
2016-12-02T03:13:21.054Z,0
2016-12-02T03:14:21.378Z,0
2016-12-02T03:15:21.370Z,0
2016-12-02T03:16:21.365Z,0
2016-12-02T03:17:21.357Z,0
2016-12-02T03:18:21.046Z,0
2016-12-02T03:19:21.026Z,0
2016-12-02T03:20:21.341Z,0
2016-12-02T03:21:21.030Z,0
2016-12-02T03:22:21.338Z,0
2016-12-02T03:23:21.330Z,0
2016-12-02T03:24:21.010Z,0
2016-12-02T03:25:21.317Z,0
2016-12-02T03:26:21.314Z,0
2016-12-02T03:27:21.334Z,0
2016-12-02T03:28:21.306Z,0
2016-12-02T03:29:21.302Z,0
2016-12-02T03:30:21.302Z,0
2016-12-02T03:31:20.966Z,0
2016-12-02T03:32:21.290Z,0
2016-12-02T03:33:21.278Z,0
2016-12-02T03:34:21.274Z,0
2016-12-02T03:35:21.270Z,0
2016-12-02T03:36:20.942Z,0
2016-12-02T03:37:21.262Z,0
2016-12-02T03:38:20.926Z,0
2016-12-02T03:39:21.250Z,0
2016-12-02T03:40:20.922Z,0
2016-12-02T03:41:20.926Z,0
2016-12-02T03:42:21.250Z,0
2016-12-02T03:43:21.234Z,0
2016-12-02T03:44:20.910Z,0
2016-12-02T03:45:21.222Z,0
2016-12-02T03:46:20.918Z,0
2016-12-02T03:47:21.210Z,0
2016-12-02T03:48:21.206Z,0
2016-12-02T03:49:21.206Z,0
2016-12-02T03:50:21.202Z,0
2016-12-02T03:51:21.190Z,0
2016-12-02T03:52:21.234Z,0
2016-12-02T03:53:21.190Z,0
2016-12-02T03:54:21.182Z,0
2016-12-02T03:55:20.850Z,0
2016-12-02T03:56:21.179Z,0
2016-12-02T03:57:21.168Z,0
2016-12-02T03:58:21.162Z,0
2016-12-02T03:59:20.831Z,0
2016-12-02T04:00:20.830Z,0
2016-12-02T04:01:21.142Z,0
2016-12-02T04:02:20.814Z,0
2016-12-02T04:03:21.142Z,0
2016-12-02T04:04:20.830Z,0
2016-12-02T04:05:21.122Z,0
2016-12-02T04:06:21.138Z,0
2016-12-02T04:07:21.114Z,0
2016-12-02T04:08:20.790Z,0
2016-12-02T04:09:21.102Z,0
2016-12-02T04:10:21.098Z,0
2016-12-02T04:11:20.774Z,0
2016-12-02T04:12:20.766Z,0
2016-12-02T04:13:20.754Z,0
2016-12-02T04:14:20.426Z,0
2016-12-02T04:15:21.075Z,0
2016-12-02T04:16:21.071Z,0
2016-12-02T04:17:21.078Z,0
2016-12-02T04:18:21.059Z,0
2016-12-02T04:19:21.059Z,0
2016-12-02T04:20:21.054Z,0
2016-12-02T04:21:20.727Z,0
2016-12-02T04:22:21.046Z,0
2016-12-02T04:23:21.038Z,0
2016-12-02T04:24:21.031Z,0
2016-12-02T04:25:20.702Z,0
2016-12-02T04:26:20.370Z,0
2016-12-02T04:27:20.691Z,0
2016-12-02T04:28:20.691Z,0
2016-12-02T04:29:20.679Z,0
2016-12-02T04:30:20.387Z,0
2016-12-02T04:31:20.995Z,0
2016-12-02T04:32:20.991Z,0
2016-12-02T04:33:20.667Z,0
2016-12-02T04:34:20.659Z,0
2016-12-02T04:35:20.975Z,0
2016-12-02T04:36:20.651Z,0
2016-12-02T04:37:20.979Z,0
2016-12-02T04:38:20.967Z,0
2016-12-02T04:39:20.958Z,0
2016-12-02T04:40:20.631Z,0
2016-12-02T04:41:20.951Z,0
2016-12-02T04:42:20.611Z,0
2016-12-02T04:43:20.935Z,0
2016-12-02T04:44:20.931Z,0
2016-12-02T04:45:20.935Z,0
2016-12-02T04:46:20.591Z,0
2016-12-02T04:47:20.598Z,0
2016-12-02T04:48:20.587Z,0
2016-12-02T04:49:20.587Z,0
2016-12-02T04:50:20.575Z,0
2016-12-02T04:51:20.571Z,0
2016-12-02T04:52:20.571Z,0
2016-12-02T04:53:20.891Z,0
2016-12-02T04:54:20.891Z,0
2016-12-02T04:55:20.903Z,0
2016-12-02T04:56:20.227Z,0
2016-12-02T04:57:20.543Z,0
2016-12-02T04:58:20.583Z,0
2016-12-02T04:59:20.855Z,0
2016-12-02T05:00:20.859Z,0
2016-12-02T05:01:20.855Z,0
2016-12-02T05:02:20.523Z,0
2016-12-02T05:03:20.835Z,0
2016-12-02T05:04:20.835Z,0
2016-12-02T05:05:20.831Z,0
2016-12-02T05:06:20.827Z,0
2016-12-02T05:07:20.815Z,0
2016-12-02T05:08:20.819Z,0
2016-12-02T05:09:20.811Z,0
2016-12-02T05:10:20.803Z,0
2016-12-02T05:11:20.795Z,0
2016-12-02T05:12:20.795Z,0
2016-12-02T05:13:20.475Z,0
2016-12-02T05:14:20.783Z,0
2016-12-02T05:15:20.775Z,0
2016-12-02T05:16:20.123Z,0
2016-12-02T05:17:20.119Z,0
2016-12-02T05:18:20.435Z,0
2016-12-02T05:19:20.759Z,0
2016-12-02T05:20:20.752Z,0
2016-12-02T05:21:20.747Z,0
2016-12-02T05:22:20.415Z,0
2016-12-02T05:23:20.737Z,0
2016-12-02T05:24:20.739Z,0
2016-12-02T05:25:20.727Z,0
2016-12-02T05:26:20.396Z,0
2016-12-02T05:27:20.716Z,0
2016-12-02T05:28:20.711Z,0
2016-12-02T05:29:20.707Z,0
2016-12-02T05:30:20.703Z,0
2016-12-02T05:31:20.048Z,0
2016-12-02T05:32:20.691Z,0
2016-12-02T05:33:20.384Z,0
2016-12-02T05:34:20.680Z,0
2016-12-02T05:35:20.352Z,0
2016-12-02T05:36:20.676Z,0
2016-12-02T05:37:20.668Z,0
2016-12-02T05:38:20.348Z,0
2016-12-02T05:39:20.660Z,0
2016-12-02T05:40:20.652Z,0
2016-12-02T05:41:20.648Z,0
2016-12-02T05:42:20.316Z,0
2016-12-02T05:43:20.636Z,0
2016-12-02T05:44:20.312Z,0
2016-12-02T05:45:20.310Z,0
2016-12-02T05:46:20.296Z,0
2016-12-02T05:47:20.616Z,0
2016-12-02T05:48:20.616Z,0
2016-12-02T05:49:20.612Z,0
2016-12-02T05:50:20.276Z,0
2016-12-02T05:51:20.800Z,0
2016-12-02T05:52:20.596Z,0
2016-12-02T05:53:19.612Z,0
2016-12-02T05:54:20.584Z,0
2016-12-02T05:55:20.576Z,0
2016-12-02T05:56:20.572Z,0
2016-12-02T05:57:20.244Z,0
2016-12-02T05:58:20.240Z,0
2016-12-02T05:59:19.912Z,0
2016-12-02T06:00:20.556Z,0
2016-12-02T06:01:20.548Z,0
2016-12-02T06:02:20.212Z,0
2016-12-02T06:03:20.540Z,0
2016-12-02T06:04:20.528Z,0
2016-12-02T06:05:20.528Z,0
2016-12-02T06:06:20.204Z,0
2016-12-02T06:07:20.216Z,0
2016-12-02T06:08:20.512Z,0
2016-12-02T06:09:20.504Z,0
2016-12-02T06:10:20.503Z,0
2016-12-02T06:11:20.172Z,0
2016-12-02T06:12:20.487Z,0
2016-12-02T06:13:20.483Z,0
2016-12-02T06:14:20.152Z,0
2016-12-02T06:15:20.479Z,0
2016-12-02T06:16:20.467Z,0
2016-12-02T06:17:20.139Z,0
2016-12-02T06:18:20.159Z,0
2016-12-02T06:19:20.451Z,0
2016-12-02T06:20:20.123Z,0
2016-12-02T06:21:20.115Z,0
2016-12-02T06:22:20.443Z,0
2016-12-02T06:23:20.431Z,0
2016-12-02T06:24:20.103Z,0
2016-12-02T06:25:20.424Z,0
2016-12-02T06:26:20.416Z,0
2016-12-02T06:27:19.768Z,0
2016-12-02T06:28:20.436Z,0
2016-12-02T06:29:20.408Z,0
2016-12-02T06:30:20.400Z,0
2016-12-02T06:31:20.396Z,0
2016-12-02T06:32:20.392Z,0
2016-12-02T06:33:20.053Z,0
2016-12-02T06:34:20.060Z,0
2016-12-02T06:35:20.372Z,0
2016-12-02T06:36:20.368Z,0
2016-12-02T06:37:20.360Z,0
2016-12-02T06:38:20.361Z,0
2016-12-02T06:39:20.029Z,0
2016-12-02T06:40:20.025Z,0
2016-12-02T06:41:20.345Z,0
2016-12-02T06:42:20.337Z,0
2016-12-02T06:43:19.704Z,0
2016-12-02T06:44:20.329Z,0
2016-12-02T06:45:20.321Z,0
2016-12-02T06:46:20.317Z,0
2016-12-02T06:47:20.005Z,0
2016-12-02T06:48:20.305Z,0
2016-12-02T06:49:19.973Z,0
2016-12-02T06:50:20.297Z,0
2016-12-02T06:51:20.289Z,0
2016-12-02T06:52:19.961Z,0
2016-12-02T06:53:19.965Z,0
2016-12-02T06:54:19.997Z,0
2016-12-02T06:55:20.285Z,5
2016-12-02T06:56:20.269Z,5
2016-12-02T06:57:19.613Z,5
2016-12-02T06:58:20.257Z,5
2016-12-02T06:59:20.253Z,5
2016-12-02T07:00:20.249Z,5
2016-12-02T07:01:20.249Z,5
2016-12-02T07:02:19.909Z,5
2016-12-02T07:03:19.917Z,5
2016-12-02T07:04:20.249Z,5
2016-12-02T07:05:20.225Z,5
2016-12-02T07:06:20.217Z,10
2016-12-02T07:07:20.210Z,10
2016-12-02T07:08:20.213Z,10
2016-12-02T07:09:19.878Z,10
2016-12-02T07:10:19.874Z,10
2016-12-02T07:11:19.869Z,10
2016-12-02T07:12:19.866Z,10
2016-12-02T07:13:19.534Z,15
2016-12-02T07:14:19.854Z,15
2016-12-02T07:15:19.850Z,15
2016-12-02T07:16:20.166Z,15
2016-12-02T07:17:20.162Z,15
2016-12-02T07:18:20.162Z,15
2016-12-02T07:19:20.154Z,15
2016-12-02T07:20:19.491Z,20
2016-12-02T07:21:20.150Z,20
2016-12-02T07:22:20.138Z,20
2016-12-02T07:23:20.147Z,20
2016-12-02T07:24:19.807Z,20
2016-12-02T07:25:19.807Z,20
2016-12-02T07:26:20.215Z,20
2016-12-02T07:27:19.783Z,20
2016-12-02T07:28:20.115Z,25
2016-12-02T07:29:20.111Z,25
2016-12-02T07:30:20.096Z,25
2016-12-02T07:31:19.447Z,25
2016-12-02T07:32:20.087Z,25
2016-12-02T07:33:20.088Z,30
2016-12-02T07:34:20.079Z,30
2016-12-02T07:35:19.752Z,30
2016-12-02T07:36:20.076Z,35
2016-12-02T07:37:20.073Z,35
2016-12-02T07:38:19.732Z,35
2016-12-02T07:39:19.732Z,35
2016-12-02T07:40:20.048Z,35
2016-12-02T07:41:20.049Z,35
2016-12-02T07:42:20.036Z,35
2016-12-02T07:43:20.040Z,35
2016-12-02T07:44:19.382Z,35
2016-12-02T07:45:20.029Z,40
2016-12-02T07:46:19.696Z,40
2016-12-02T07:47:19.721Z,45
2016-12-02T07:48:20.013Z,45
2016-12-02T07:49:19.683Z,45
2016-12-02T07:50:20.012Z,45
2016-12-02T07:51:20.016Z,45
2016-12-02T07:52:19.992Z,50
2016-12-02T07:53:19.984Z,50
2016-12-02T07:54:19.988Z,50
2016-12-02T07:55:19.980Z,50
2016-12-02T07:56:19.980Z,50
2016-12-02T07:57:19.968Z,50
2016-12-02T07:58:19.964Z,50
2016-12-02T07:59:19.960Z,50
2016-12-02T08:00:19.632Z,50
2016-12-02T08:01:19.955Z,50
2016-12-02T08:02:19.944Z,50
2016-12-02T08:03:19.967Z,45
2016-12-02T08:04:19.940Z,45
2016-12-02T08:05:19.927Z,40
2016-12-02T08:06:19.931Z,40
2016-12-02T08:07:19.927Z,40
2016-12-02T08:08:19.592Z,40
2016-12-02T08:09:19.911Z,40
2016-12-02T08:10:19.911Z,40
2016-12-02T08:11:19.279Z,40
2016-12-02T08:12:19.903Z,40
2016-12-02T08:13:19.591Z,40
2016-12-02T08:14:19.563Z,40
2016-12-02T08:15:19.239Z,40
2016-12-02T08:16:19.879Z,40
2016-12-02T08:17:19.563Z,40
2016-12-02T08:18:19.547Z,40
2016-12-02T08:19:19.547Z,40
2016-12-02T08:20:19.211Z,40
2016-12-02T08:21:19.531Z,45
2016-12-02T08:22:19.859Z,45
2016-12-02T08:23:19.199Z,45
2016-12-02T08:24:19.847Z,45
2016-12-02T08:25:19.519Z,45
2016-12-02T08:26:19.834Z,50
2016-12-02T08:27:19.835Z,55
2016-12-02T08:28:18.850Z,55
2016-12-02T08:29:19.823Z,55
2016-12-02T08:30:19.171Z,55
2016-12-02T08:31:19.491Z,55
2016-12-02T08:32:19.811Z,55
2016-12-02T08:33:19.482Z,55
2016-12-02T08:34:19.798Z,55
2016-12-02T08:35:19.466Z,55
2016-12-02T08:36:19.795Z,60
2016-12-02T08:37:19.142Z,60
2016-12-02T08:38:19.787Z,60
2016-12-02T08:39:19.779Z,60
2016-12-02T08:40:19.774Z,60
2016-12-02T08:41:19.770Z,60
2016-12-02T08:42:19.446Z,60
2016-12-02T08:43:19.766Z,60
2016-12-02T08:44:19.758Z,65
2016-12-02T08:45:19.460Z,65
2016-12-02T08:46:19.758Z,65
2016-12-02T08:47:19.747Z,70
2016-12-02T08:48:19.742Z,70
2016-12-02T08:49:19.746Z,75
2016-12-02T08:50:19.742Z,75
2016-12-02T08:51:19.406Z,70
2016-12-02T08:52:19.726Z,70
2016-12-02T08:53:19.731Z,70
2016-12-02T08:54:19.391Z,65
2016-12-02T08:55:19.710Z,65
2016-12-02T08:56:19.062Z,65
2016-12-02T08:57:19.706Z,60
2016-12-02T08:58:19.702Z,60
2016-12-02T08:59:19.370Z,55
2016-12-02T09:00:19.706Z,55
2016-12-02T09:01:19.362Z,60
2016-12-02T09:02:19.682Z,60
2016-12-02T09:03:19.378Z,60
2016-12-02T09:04:19.678Z,55
2016-12-02T09:05:19.346Z,55
2016-12-02T09:06:19.670Z,50
2016-12-02T09:07:19.670Z,50
2016-12-02T09:08:19.662Z,50
2016-12-02T09:09:19.340Z,50
2016-12-02T09:10:19.658Z,55
2016-12-02T09:11:19.326Z,55
2016-12-02T09:12:19.322Z,55
2016-12-02T09:13:19.322Z,60
2016-12-02T09:14:19.638Z,60
2016-12-02T09:15:19.310Z,60
2016-12-02T09:16:19.630Z,60
2016-12-02T09:17:19.306Z,60
2016-12-02T09:18:18.654Z,60
2016-12-02T09:19:19.618Z,65
2016-12-02T09:20:19.294Z,65
2016-12-02T09:21:19.290Z,70
2016-12-02T09:22:19.610Z,70
2016-12-02T09:23:19.607Z,75
2016-12-02T09:24:19.599Z,75
2016-12-02T09:25:19.594Z,80
2016-12-02T09:26:19.598Z,80
2016-12-02T09:27:19.586Z,80
2016-12-02T09:28:19.583Z,80
2016-12-02T09:29:19.587Z,75
2016-12-02T09:30:19.579Z,75
2016-12-02T09:31:19.587Z,80
2016-12-02T09:32:19.247Z,80
2016-12-02T09:33:19.567Z,80
2016-12-02T09:34:19.563Z,80
2016-12-02T09:35:19.559Z,80
2016-12-02T09:36:19.555Z,80
2016-12-02T09:37:18.903Z,80
2016-12-02T09:38:19.547Z,75
2016-12-02T09:39:19.543Z,75
2016-12-02T09:40:19.543Z,75
2016-12-02T09:41:19.543Z,75
2016-12-02T09:42:18.888Z,75
2016-12-02T09:43:19.532Z,70
2016-12-02T09:44:19.528Z,70
2016-12-02T09:45:19.204Z,70
2016-12-02T09:46:19.520Z,70
2016-12-02T09:47:19.820Z,65
2016-12-02T09:48:19.516Z,65
2016-12-02T09:49:19.512Z,65
2016-12-02T09:50:19.508Z,60
2016-12-02T09:51:19.512Z,60
2016-12-02T09:52:18.852Z,60
2016-12-02T09:53:19.497Z,60
2016-12-02T09:54:19.497Z,60
2016-12-02T09:55:18.853Z,60
2016-12-02T09:56:19.489Z,60
2016-12-02T09:57:19.161Z,60
2016-12-02T09:58:19.157Z,60
2016-12-02T09:59:19.189Z,60
2016-12-02T10:00:19.473Z,60
2016-12-02T10:01:19.477Z,60
2016-12-02T10:02:19.469Z,55
2016-12-02T10:03:19.165Z,55
2016-12-02T10:04:19.461Z,55
2016-12-02T10:05:19.461Z,60
2016-12-02T10:06:19.129Z,60
2016-12-02T10:07:19.598Z,60
2016-12-02T10:08:19.454Z,60
2016-12-02T10:09:19.446Z,60
2016-12-02T10:10:19.474Z,60
2016-12-02T10:11:19.441Z,60
2016-12-02T10:12:19.437Z,60
2016-12-02T10:13:19.110Z,60
2016-12-02T10:14:19.102Z,60
2016-12-02T10:15:19.106Z,60
2016-12-02T10:16:19.430Z,60
2016-12-02T10:17:19.430Z,60
2016-12-02T10:18:19.090Z,60
2016-12-02T10:19:19.410Z,60
2016-12-02T10:20:19.418Z,60
2016-12-02T10:21:19.083Z,60
2016-12-02T10:22:19.087Z,60
2016-12-02T10:23:19.407Z,60
2016-12-02T10:24:19.067Z,60
2016-12-02T10:25:19.070Z,60
2016-12-02T10:26:19.387Z,60
2016-12-02T10:27:18.739Z,60
2016-12-02T10:28:19.059Z,60
2016-12-02T10:29:19.059Z,60
2016-12-02T10:30:19.375Z,60
2016-12-02T10:31:19.047Z,60
2016-12-02T10:32:19.375Z,60
2016-12-02T10:33:19.371Z,60
2016-12-02T10:34:19.371Z,60
2016-12-02T10:35:19.039Z,60
2016-12-02T10:36:19.359Z,60
2016-12-02T10:37:19.032Z,60
2016-12-02T10:38:19.348Z,60
2016-12-02T10:39:19.348Z,60
2016-12-02T10:40:19.349Z,60
2016-12-02T10:41:19.340Z,60
2016-12-02T10:42:19.016Z,60
2016-12-02T10:43:19.341Z,60
2016-12-02T10:44:19.332Z,60
2016-12-02T10:45:19.328Z,60
2016-12-02T10:46:19.035Z,60
2016-12-02T10:47:19.320Z,60
2016-12-02T10:48:19.320Z,60
2016-12-02T10:49:18.337Z,60
2016-12-02T10:50:19.316Z,60
2016-12-02T10:51:19.384Z,60
2016-12-02T10:52:19.308Z,60
2016-12-02T10:53:19.336Z,60
2016-12-02T10:54:19.296Z,60
2016-12-02T10:55:19.305Z,60
2016-12-02T10:56:18.968Z,60
2016-12-02T10:57:19.289Z,60
2016-12-02T10:58:18.633Z,60
2016-12-02T10:59:18.961Z,60
2016-12-02T11:00:19.277Z,60
2016-12-02T11:01:19.281Z,60
2016-12-02T11:02:18.946Z,60
2016-12-02T11:03:19.261Z,60
2016-12-02T11:04:18.945Z,60
2016-12-02T11:05:19.261Z,60
2016-12-02T11:06:18.929Z,60
2016-12-02T11:07:19.269Z,60
2016-12-02T11:08:19.258Z,60
2016-12-02T11:09:19.249Z,60
2016-12-02T11:10:19.281Z,60
2016-12-02T11:11:18.589Z,60
2016-12-02T11:12:19.405Z,60
2016-12-02T11:13:19.246Z,60
2016-12-02T11:14:19.234Z,60
2016-12-02T11:15:18.910Z,60
2016-12-02T11:16:18.902Z,60
2016-12-02T11:17:18.774Z,60
2016-12-02T11:18:19.234Z,60
2016-12-02T11:19:18.566Z,60
2016-12-02T11:20:18.886Z,60
2016-12-02T11:21:19.214Z,60
2016-12-02T11:22:18.882Z,60
2016-12-02T11:23:18.882Z,60
2016-12-02T11:24:19.203Z,60
2016-12-02T11:25:18.874Z,60
2016-12-02T11:26:18.871Z,60
2016-12-02T11:27:18.726Z,60
2016-12-02T11:28:19.187Z,60
2016-12-02T11:29:18.859Z,60
2016-12-02T11:30:19.307Z,55
2016-12-02T11:31:18.855Z,55
2016-12-02T11:32:19.179Z,55
2016-12-02T11:33:18.853Z,55
2016-12-02T11:34:19.183Z,55
2016-12-02T11:35:18.843Z,55
2016-12-02T11:36:19.163Z,55
2016-12-02T11:37:19.159Z,55
2016-12-02T11:38:18.833Z,55
2016-12-02T11:39:18.827Z,55
2016-12-02T11:40:19.164Z,55
2016-12-02T11:41:19.148Z,55
2016-12-02T11:42:18.967Z,55
2016-12-02T11:43:19.144Z,55
2016-12-02T11:44:18.852Z,55
2016-12-02T11:45:18.840Z,55
2016-12-02T11:46:18.812Z,55
2016-12-02T11:47:18.804Z,55
2016-12-02T11:48:19.128Z,55
2016-12-02T11:49:19.124Z,55
2016-12-02T11:50:19.124Z,55
2016-12-02T11:51:19.124Z,55
2016-12-02T11:52:19.116Z,55
2016-12-02T11:53:19.112Z,55
2016-12-02T11:54:18.781Z,55
2016-12-02T11:55:19.108Z,55
2016-12-02T11:56:19.104Z,55
2016-12-02T11:57:18.781Z,55
2016-12-02T11:58:19.096Z,55
2016-12-02T11:59:18.445Z,55
2016-12-02T12:00:19.089Z,55
2016-12-02T12:01:18.773Z,55
2016-12-02T12:02:19.092Z,55
2016-12-02T12:03:19.113Z,55
2016-12-02T12:04:19.081Z,55
2016-12-02T12:05:19.085Z,55
2016-12-02T12:06:19.077Z,55
2016-12-02T12:07:19.069Z,55
2016-12-02T12:08:19.069Z,55
2016-12-02T12:09:19.065Z,55
2016-12-02T12:10:19.061Z,55
2016-12-02T12:11:18.737Z,55
2016-12-02T12:12:19.057Z,55
2016-12-02T12:13:19.049Z,60
2016-12-02T12:14:19.050Z,60
2016-12-02T12:15:19.045Z,60
2016-12-02T12:16:19.042Z,60
2016-12-02T12:17:19.045Z,60
2016-12-02T12:18:18.718Z,60
2016-12-02T12:19:18.706Z,60
2016-12-02T12:20:18.710Z,60
2016-12-02T12:21:19.026Z,60
2016-12-02T12:22:19.022Z,60
2016-12-02T12:23:18.698Z,60
2016-12-02T12:24:19.018Z,60
2016-12-02T12:25:19.014Z,60
2016-12-02T12:26:19.010Z,60
2016-12-02T12:27:18.358Z,60
2016-12-02T12:28:18.362Z,60
2016-12-02T12:29:18.679Z,60
2016-12-02T12:30:19.010Z,60
2016-12-02T12:31:18.998Z,60
2016-12-02T12:32:18.996Z,60
2016-12-02T12:33:18.990Z,60
2016-12-02T12:34:19.015Z,55
2016-12-02T12:35:18.987Z,55
2016-12-02T12:36:18.347Z,55
2016-12-02T12:37:18.655Z,55
2016-12-02T12:38:18.987Z,55
2016-12-02T12:39:18.655Z,55
2016-12-02T12:40:18.647Z,55
2016-12-02T12:41:18.647Z,55
2016-12-02T12:42:18.967Z,55
2016-12-02T12:43:18.315Z,55
2016-12-02T12:44:18.959Z,55
2016-12-02T12:45:18.959Z,55
2016-12-02T12:46:18.331Z,55
2016-12-02T12:47:18.956Z,55
2016-12-02T12:48:18.947Z,50
2016-12-02T12:49:18.628Z,50
2016-12-02T12:50:18.628Z,50
2016-12-02T12:51:18.619Z,50
2016-12-02T12:52:18.296Z,50
2016-12-02T12:53:18.936Z,50
2016-12-02T12:54:18.936Z,50
2016-12-02T12:55:18.928Z,50
2016-12-02T12:56:18.608Z,50
2016-12-02T12:57:18.928Z,50
2016-12-02T12:58:18.604Z,50
2016-12-02T12:59:18.596Z,50
2016-12-02T13:00:18.924Z,50
2016-12-02T13:01:18.592Z,50
2016-12-02T13:02:18.908Z,50
2016-12-02T13:03:18.909Z,50
2016-12-02T13:04:18.908Z,50
2016-12-02T13:05:18.900Z,50
2016-12-02T13:06:18.573Z,50
2016-12-02T13:07:18.576Z,50
2016-12-02T13:08:18.893Z,50
2016-12-02T13:09:18.889Z,50
2016-12-02T13:10:18.885Z,50
2016-12-02T13:11:18.885Z,50
2016-12-02T13:12:18.557Z,50
2016-12-02T13:13:18.893Z,50
2016-12-02T13:14:18.549Z,50
2016-12-02T13:15:18.901Z,50
2016-12-02T13:16:18.869Z,50
2016-12-02T13:17:18.541Z,50
2016-12-02T13:18:18.537Z,50
2016-12-02T13:19:18.541Z,50
2016-12-02T13:20:18.869Z,50
2016-12-02T13:21:18.853Z,50
2016-12-02T13:22:18.853Z,50
2016-12-02T13:23:18.529Z,50
2016-12-02T13:24:18.848Z,50
2016-12-02T13:25:18.521Z,50
2016-12-02T13:26:18.841Z,50
2016-12-02T13:27:18.521Z,50
2016-12-02T13:28:18.845Z,50
2016-12-02T13:29:18.517Z,50
2016-12-02T13:30:18.506Z,50
2016-12-02T13:31:18.834Z,50
2016-12-02T13:32:18.838Z,50
2016-12-02T13:33:18.830Z,50
2016-12-02T13:34:18.828Z,50
2016-12-02T13:35:18.842Z,50
2016-12-02T13:36:18.814Z,50
2016-12-02T13:37:18.810Z,55
2016-12-02T13:38:18.810Z,55
2016-12-02T13:39:18.486Z,55
2016-12-02T13:40:18.802Z,50
2016-12-02T13:41:18.802Z,50
2016-12-02T13:42:18.482Z,50
2016-12-02T13:43:18.471Z,50
2016-12-02T13:44:18.790Z,50
2016-12-02T13:45:18.466Z,45
2016-12-02T13:46:18.139Z,45
2016-12-02T13:47:18.458Z,45
2016-12-02T13:48:18.134Z,45
2016-12-02T13:49:18.783Z,45
2016-12-02T13:50:18.450Z,40
2016-12-02T13:51:18.446Z,40
2016-12-02T13:52:18.779Z,40
2016-12-02T13:53:18.443Z,40
2016-12-02T13:54:18.762Z,40
2016-12-02T13:55:18.763Z,40
2016-12-02T13:56:18.431Z,40
2016-12-02T13:57:18.754Z,40
2016-12-02T13:58:18.770Z,40
2016-12-02T13:59:18.435Z,35
2016-12-02T14:00:18.427Z,35
2016-12-02T14:01:18.747Z,35
2016-12-02T14:02:18.090Z,35
2016-12-02T14:03:18.087Z,35
2016-12-02T14:04:18.743Z,35
2016-12-02T14:05:18.407Z,35
2016-12-02T14:06:18.735Z,35
2016-12-02T14:07:18.727Z,30
2016-12-02T14:08:18.727Z,30
2016-12-02T14:09:18.727Z,30
2016-12-02T14:10:18.719Z,30
2016-12-02T14:11:18.723Z,30
2016-12-02T14:12:18.719Z,30
2016-12-02T14:13:18.387Z,30
2016-12-02T14:14:18.711Z,30
2016-12-02T14:15:18.391Z,25
2016-12-02T14:16:18.379Z,25
2016-12-02T14:17:18.703Z,25
2016-12-02T14:18:18.375Z,25
2016-12-02T14:19:21.183Z,25
2016-12-02T14:20:18.363Z,25
2016-12-02T14:21:18.691Z,25
2016-12-02T14:22:18.687Z,25
2016-12-02T14:23:18.685Z,25
2016-12-02T14:24:18.679Z,25
2016-12-02T14:25:18.679Z,25
2016-12-02T14:26:18.675Z,20
2016-12-02T14:27:18.675Z,20
2016-12-02T14:28:18.671Z,20
2016-12-02T14:29:18.667Z,20
2016-12-02T14:30:18.339Z,20